sensor_id;sensor_type;location;lat;lon;timestamp;temperature;humidity
49321;DHT22;35817;44.498;0.166;2022-09-09T00:02:01;18.40;99.90
49321;DHT22;35817;44.498;0.166;2022-09-09T00:04:32;18.40;99.90
49321;DHT22;35817;44.498;0.166;2022-09-09T00:07:15;18.40;99.90
49321;DHT22;35817;44.498;0.166;2022-09-09T00:09:50;18.30;99.90
49321;DHT22;35817;44.498;0.166;2022-09-09T00:12:27;18.30;99.90
49321;DHT22;35817;44.498;0.166;2022-09-09T00:15:02;18.30;99.90
49321;DHT22;35817;44.498;0.166;2022-09-09T00:20:16;18.20;99.90
49321;DHT22;35817;44.498;0.166;2022-09-09T00:22:57;18.20;99.90
49321;DHT22;35817;44.498;0.166;2022-09-09T00:25:46;18.20;99.90
49321;DHT22;35817;44.498;0.166;2022-09-09T00:28:20;18.20;99.90
49321;DHT22;35817;44.498;0.166;2022-09-09T00:30:47;18.20;99.90
49321;DHT22;35817;44.498;0.166;2022-09-09T00:33:16;18.20;99.90
49321;DHT22;35817;44.498;0.166;2022-09-09T00:35:49;18.20;99.90
49321;DHT22;35817;44.498;0.166;2022-09-09T00:38:32;18.10;99.90
49321;DHT22;35817;44.498;0.166;2022-09-09T00:44:02;18.00;99.90
49321;DHT22;35817;44.498;0.166;2022-09-09T00:55:10;18.00;99.90
49321;DHT22;35817;44.498;0.166;2022-09-09T00:57:38;18.00;99.90
49321;DHT22;35817;44.498;0.166;2022-09-09T01:10:56;18.10;99.90
49321;DHT22;35817;44.498;0.166;2022-09-09T01:13:29;18.20;99.90
49321;DHT22;35817;44.498;0.166;2022-09-09T01:16:00;18.20;99.90
49321;DHT22;35817;44.498;0.166;2022-09-09T01:18:46;18.20;99.90
49321;DHT22;35817;44.498;0.166;2022-09-09T01:26:19;18.20;99.90
49321;DHT22;35817;44.498;0.166;2022-09-09T01:28:51;18.20;99.90
49321;DHT22;35817;44.498;0.166;2022-09-09T01:31:41;18.20;99.90
49321;DHT22;35817;44.498;0.166;2022-09-09T01:34:14;18.20;99.90
49321;DHT22;35817;44.498;0.166;2022-09-09T01:36:42;18.20;99.90
49321;DHT22;35817;44.498;0.166;2022-09-09T01:39:08;18.20;99.90
49321;DHT22;35817;44.498;0.166;2022-09-09T01:41:34;18.20;99.90
49321;DHT22;35817;44.498;0.166;2022-09-09T01:44:00;18.10;99.90
49321;DHT22;35817;44.498;0.166;2022-09-09T01:46:28;18.10;99.90
49321;DHT22;35817;44.498;0.166;2022-09-09T01:48:55;18.10;99.90
49321;DHT22;35817;44.498;0.166;2022-09-09T01:51:22;18.10;99.90
49321;DHT22;35817;44.498;0.166;2022-09-09T01:53:48;18.10;99.90
49321;DHT22;35817;44.498;0.166;2022-09-09T02:02:18;18.10;99.90
49321;DHT22;35817;44.498;0.166;2022-09-09T02:04:50;18.00;99.90
49321;DHT22;35817;44.498;0.166;2022-09-09T02:07:24;18.10;99.90
49321;DHT22;35817;44.498;0.166;2022-09-09T02:09:59;18.10;99.90
49321;DHT22;35817;44.498;0.166;2022-09-09T02:12:28;18.10;99.90
49321;DHT22;35817;44.498;0.166;2022-09-09T02:14:57;18.10;99.90
49321;DHT22;35817;44.498;0.166;2022-09-09T02:17:28;18.20;99.90
49321;DHT22;35817;44.498;0.166;2022-09-09T02:20:05;18.20;99.90
49321;DHT22;35817;44.498;0.166;2022-09-09T02:22:33;18.20;99.90
49321;DHT22;35817;44.498;0.166;2022-09-09T02:25:00;18.20;99.90
49321;DHT22;35817;44.498;0.166;2022-09-09T02:27:26;18.10;99.90
49321;DHT22;35817;44.498;0.166;2022-09-09T02:29:54;18.10;99.90
49321;DHT22;35817;44.498;0.166;2022-09-09T02:32:23;18.10;99.90
49321;DHT22;35817;44.498;0.166;2022-09-09T02:34:55;18.00;99.90
49321;DHT22;35817;44.498;0.166;2022-09-09T02:37:26;18.00;99.90
49321;DHT22;35817;44.498;0.166;2022-09-09T02:39:54;18.00;99.90
49321;DHT22;35817;44.498;0.166;2022-09-09T02:42:20;18.00;99.90
49321;DHT22;35817;44.498;0.166;2022-09-09T02:44:46;17.90;99.90
49321;DHT22;35817;44.498;0.166;2022-09-09T02:50:08;17.90;99.90
49321;DHT22;35817;44.498;0.166;2022-09-09T02:58:00;17.90;99.90
49321;DHT22;35817;44.498;0.166;2022-09-09T03:00:28;17.90;99.90
49321;DHT22;35817;44.498;0.166;2022-09-09T03:02:54;17.90;99.90
49321;DHT22;35817;44.498;0.166;2022-09-09T03:05:21;17.80;99.90
49321;DHT22;35817;44.498;0.166;2022-09-09T03:07:47;17.80;99.90
49321;DHT22;35817;44.498;0.166;2022-09-09T03:10:15;17.70;99.90
49321;DHT22;35817;44.498;0.166;2022-09-09T03:12:43;17.80;99.90
49321;DHT22;35817;44.498;0.166;2022-09-09T03:15:09;17.70;99.90
49321;DHT22;35817;44.498;0.166;2022-09-09T03:17:35;17.70;99.90
49321;DHT22;35817;44.498;0.166;2022-09-09T03:20:03;17.70;99.90
49321;DHT22;35817;44.498;0.166;2022-09-09T03:22:29;17.70;99.90
49321;DHT22;35817;44.498;0.166;2022-09-09T03:24:55;17.70;99.90
49321;DHT22;35817;44.498;0.166;2022-09-09T03:27:22;17.70;99.90
49321;DHT22;35817;44.498;0.166;2022-09-09T03:29:48;17.70;99.90
49321;DHT22;35817;44.498;0.166;2022-09-09T03:32:17;17.70;99.90
49321;DHT22;35817;44.498;0.166;2022-09-09T03:34:43;17.70;99.90
49321;DHT22;35817;44.498;0.166;2022-09-09T03:37:09;17.70;99.90
49321;DHT22;35817;44.498;0.166;2022-09-09T03:39:34;17.70;99.90
49321;DHT22;35817;44.498;0.166;2022-09-09T03:42:00;17.80;99.90
49321;DHT22;35817;44.498;0.166;2022-09-09T03:44:29;17.80;99.90
49321;DHT22;35817;44.498;0.166;2022-09-09T03:46:55;17.80;99.90
49321;DHT22;35817;44.498;0.166;2022-09-09T03:49:21;17.80;99.90
49321;DHT22;35817;44.498;0.166;2022-09-09T03:51:48;17.80;99.90
49321;DHT22;35817;44.498;0.166;2022-09-09T03:54:14;17.70;99.90
49321;DHT22;35817;44.498;0.166;2022-09-09T03:56:39;17.70;99.90
49321;DHT22;35817;44.498;0.166;2022-09-09T03:59:09;17.60;99.90
49321;DHT22;35817;44.498;0.166;2022-09-09T04:01:35;17.50;99.90
49321;DHT22;35817;44.498;0.166;2022-09-09T04:04:01;17.50;99.90
49321;DHT22;35817;44.498;0.166;2022-09-09T04:06:27;17.50;99.90
49321;DHT22;35817;44.498;0.166;2022-09-09T04:08:54;17.50;99.90
49321;DHT22;35817;44.498;0.166;2022-09-09T04:11:21;17.50;99.90
49321;DHT22;35817;44.498;0.166;2022-09-09T04:13:47;17.50;99.90
49321;DHT22;35817;44.498;0.166;2022-09-09T04:16:13;17.50;99.90
49321;DHT22;35817;44.498;0.166;2022-09-09T04:18:39;17.60;99.90
49321;DHT22;35817;44.498;0.166;2022-09-09T04:21:05;17.60;99.90
49321;DHT22;35817;44.498;0.166;2022-09-09T04:23:32;17.60;99.90
49321;DHT22;35817;44.498;0.166;2022-09-09T04:26:00;17.60;99.90
49321;DHT22;35817;44.498;0.166;2022-09-09T04:28:29;17.60;99.90
49321;DHT22;35817;44.498;0.166;2022-09-09T04:30:56;17.60;99.90
49321;DHT22;35817;44.498;0.166;2022-09-09T04:33:24;17.60;99.90
49321;DHT22;35817;44.498;0.166;2022-09-09T04:35:52;17.60;99.90
49321;DHT22;35817;44.498;0.166;2022-09-09T04:38:20;17.60;99.90
49321;DHT22;35817;44.498;0.166;2022-09-09T04:40:49;17.50;99.90
49321;DHT22;35817;44.498;0.166;2022-09-09T04:43:15;17.50;99.90
49321;DHT22;35817;44.498;0.166;2022-09-09T04:45:42;17.50;99.90
49321;DHT22;35817;44.498;0.166;2022-09-09T04:48:10;17.50;99.90
49321;DHT22;35817;44.498;0.166;2022-09-09T04:50:36;17.50;99.90
49321;DHT22;35817;44.498;0.166;2022-09-09T04:53:03;17.50;99.90
49321;DHT22;35817;44.498;0.166;2022-09-09T04:55:30;17.50;99.90
49321;DHT22;35817;44.498;0.166;2022-09-09T04:57:56;17.50;99.90
49321;DHT22;35817;44.498;0.166;2022-09-09T05:00:23;17.50;99.90
49321;DHT22;35817;44.498;0.166;2022-09-09T05:02:49;17.50;99.90
49321;DHT22;35817;44.498;0.166;2022-09-09T05:05:15;17.50;99.90
49321;DHT22;35817;44.498;0.166;2022-09-09T05:07:42;17.50;99.90
49321;DHT22;35817;44.498;0.166;2022-09-09T05:10:08;17.40;99.90
49321;DHT22;35817;44.498;0.166;2022-09-09T05:12:35;17.40;99.90
49321;DHT22;35817;44.498;0.166;2022-09-09T05:15:01;17.40;99.90
49321;DHT22;35817;44.498;0.166;2022-09-09T05:17:27;17.40;99.90
49321;DHT22;35817;44.498;0.166;2022-09-09T05:19:53;17.40;99.90
49321;DHT22;35817;44.498;0.166;2022-09-09T05:22:20;17.40;99.90
49321;DHT22;35817;44.498;0.166;2022-09-09T05:24:46;17.40;99.90
49321;DHT22;35817;44.498;0.166;2022-09-09T05:27:12;17.40;99.90
49321;DHT22;35817;44.498;0.166;2022-09-09T05:29:38;17.50;99.90
49321;DHT22;35817;44.498;0.166;2022-09-09T05:32:06;17.50;99.90
49321;DHT22;35817;44.498;0.166;2022-09-09T05:34:32;17.60;99.90
49321;DHT22;35817;44.498;0.166;2022-09-09T05:36:57;17.60;99.90
49321;DHT22;35817;44.498;0.166;2022-09-09T05:39:23;17.60;99.90
49321;DHT22;35817;44.498;0.166;2022-09-09T05:41:49;17.70;99.90
49321;DHT22;35817;44.498;0.166;2022-09-09T05:44:16;17.70;99.90
49321;DHT22;35817;44.498;0.166;2022-09-09T05:46:42;17.70;99.90
49321;DHT22;35817;44.498;0.166;2022-09-09T05:49:08;17.70;99.90
49321;DHT22;35817;44.498;0.166;2022-09-09T05:51:34;17.80;99.90
49321;DHT22;35817;44.498;0.166;2022-09-09T05:53:59;17.70;99.90
49321;DHT22;35817;44.498;0.166;2022-09-09T05:56:27;17.80;99.90
49321;DHT22;35817;44.498;0.166;2022-09-09T05:58:54;17.80;99.90
49321;DHT22;35817;44.498;0.166;2022-09-09T06:01:25;17.80;99.90
49321;DHT22;35817;44.498;0.166;2022-09-09T06:03:53;17.70;99.90
49321;DHT22;35817;44.498;0.166;2022-09-09T06:06:21;17.80;99.90
49321;DHT22;35817;44.498;0.166;2022-09-09T06:08:50;17.80;99.90
49321;DHT22;35817;44.498;0.166;2022-09-09T06:11:21;17.80;99.90
49321;DHT22;35817;44.498;0.166;2022-09-09T06:13:48;17.80;99.90
49321;DHT22;35817;44.498;0.166;2022-09-09T06:16:19;17.90;99.90
49321;DHT22;35817;44.498;0.166;2022-09-09T06:18:48;17.90;99.90
49321;DHT22;35817;44.498;0.166;2022-09-09T06:21:19;17.90;99.90
49321;DHT22;35817;44.498;0.166;2022-09-09T06:23:46;18.00;99.90
49321;DHT22;35817;44.498;0.166;2022-09-09T06:26:17;18.00;99.90
49321;DHT22;35817;44.498;0.166;2022-09-09T06:28:47;18.00;99.90
49321;DHT22;35817;44.498;0.166;2022-09-09T06:31:17;18.10;99.90
49321;DHT22;35817;44.498;0.166;2022-09-09T06:33:43;18.10;99.90
49321;DHT22;35817;44.498;0.166;2022-09-09T06:36:14;18.20;99.90
49321;DHT22;35817;44.498;0.166;2022-09-09T06:38:44;18.20;99.90
49321;DHT22;35817;44.498;0.166;2022-09-09T06:41:10;18.30;99.90
49321;DHT22;35817;44.498;0.166;2022-09-09T06:43:37;18.20;99.90
49321;DHT22;35817;44.498;0.166;2022-09-09T06:46:12;18.30;99.90
49321;DHT22;35817;44.498;0.166;2022-09-09T06:48:39;18.40;99.90
49321;DHT22;35817;44.498;0.166;2022-09-09T06:53:52;18.50;99.90
49321;DHT22;35817;44.498;0.166;2022-09-09T06:58:50;18.60;99.90
49321;DHT22;35817;44.498;0.166;2022-09-09T07:01:27;18.70;99.90
49321;DHT22;35817;44.498;0.166;2022-09-09T07:03:56;18.80;99.90
49321;DHT22;35817;44.498;0.166;2022-09-09T07:08:53;19.00;99.90
49321;DHT22;35817;44.498;0.166;2022-09-09T07:11:20;19.00;99.90
49321;DHT22;35817;44.498;0.166;2022-09-09T07:13:49;19.10;99.90
49321;DHT22;35817;44.498;0.166;2022-09-09T07:16:17;19.00;99.90
49321;DHT22;35817;44.498;0.166;2022-09-09T07:18:44;18.90;99.90
49321;DHT22;35817;44.498;0.166;2022-09-09T07:21:14;18.90;99.90
49321;DHT22;35817;44.498;0.166;2022-09-09T07:23:41;18.80;99.90
49321;DHT22;35817;44.498;0.166;2022-09-09T07:26:11;18.80;99.90
49321;DHT22;35817;44.498;0.166;2022-09-09T07:28:38;18.80;99.90
49321;DHT22;35817;44.498;0.166;2022-09-09T07:31:05;18.90;99.90
49321;DHT22;35817;44.498;0.166;2022-09-09T07:33:33;18.90;99.90
49321;DHT22;35817;44.498;0.166;2022-09-09T07:36:07;19.00;99.90
49321;DHT22;35817;44.498;0.166;2022-09-09T07:38:38;19.00;99.90
49321;DHT22;35817;44.498;0.166;2022-09-09T07:41:09;19.00;99.90
49321;DHT22;35817;44.498;0.166;2022-09-09T07:43:40;19.20;99.90
49321;DHT22;35817;44.498;0.166;2022-09-09T07:46:06;19.40;99.90
49321;DHT22;35817;44.498;0.166;2022-09-09T07:48:33;19.60;99.90
49321;DHT22;35817;44.498;0.166;2022-09-09T07:51:09;19.80;99.90
49321;DHT22;35817;44.498;0.166;2022-09-09T07:53:38;20.00;99.90
49321;DHT22;35817;44.498;0.166;2022-09-09T07:56:06;20.10;99.90
49321;DHT22;35817;44.498;0.166;2022-09-09T07:58:38;20.20;99.90
49321;DHT22;35817;44.498;0.166;2022-09-09T08:01:13;20.20;99.90
49321;DHT22;35817;44.498;0.166;2022-09-09T08:03:39;20.10;99.90
49321;DHT22;35817;44.498;0.166;2022-09-09T08:06:08;20.20;99.90
49321;DHT22;35817;44.498;0.166;2022-09-09T08:08:36;20.30;99.90
49321;DHT22;35817;44.498;0.166;2022-09-09T08:11:09;20.40;99.90
49321;DHT22;35817;44.498;0.166;2022-09-09T08:13:37;20.60;99.90
49321;DHT22;35817;44.498;0.166;2022-09-09T08:16:08;20.90;99.90
49321;DHT22;35817;44.498;0.166;2022-09-09T08:18:33;21.20;99.90
49321;DHT22;35817;44.498;0.166;2022-09-09T08:21:07;21.40;99.90
49321;DHT22;35817;44.498;0.166;2022-09-09T08:23:34;21.60;99.90
49321;DHT22;35817;44.498;0.166;2022-09-09T08:26:04;21.90;99.90
49321;DHT22;35817;44.498;0.166;2022-09-09T08:28:30;22.10;99.70
49321;DHT22;35817;44.498;0.166;2022-09-09T08:31:04;22.30;99.20
49321;DHT22;35817;44.498;0.166;2022-09-09T08:33:30;22.20;98.40
49321;DHT22;35817;44.498;0.166;2022-09-09T08:35:55;22.10;97.80
49321;DHT22;35817;44.498;0.166;2022-09-09T08:38:21;21.80;96.60
49321;DHT22;35817;44.498;0.166;2022-09-09T08:40:49;21.60;96.20
49321;DHT22;35817;44.498;0.166;2022-09-09T08:43:16;21.40;95.70
49321;DHT22;35817;44.498;0.166;2022-09-09T08:45:54;21.30;95.40
49321;DHT22;35817;44.498;0.166;2022-09-09T08:48:44;21.30;94.80
49321;DHT22;35817;44.498;0.166;2022-09-09T08:51:13;21.40;94.90
49321;DHT22;35817;44.498;0.166;2022-09-09T08:53:43;21.50;95.00
49321;DHT22;35817;44.498;0.166;2022-09-09T08:56:14;21.70;93.80
49321;DHT22;35817;44.498;0.166;2022-09-09T08:58:52;21.90;93.30
49321;DHT22;35817;44.498;0.166;2022-09-09T09:01:28;22.00;92.50
49321;DHT22;35817;44.498;0.166;2022-09-09T09:08:58;22.70;87.50
49321;DHT22;35817;44.498;0.166;2022-09-09T09:11:26;22.90;86.20
49321;DHT22;35817;44.498;0.166;2022-09-09T09:13:54;22.90;86.00
49321;DHT22;35817;44.498;0.166;2022-09-09T09:18:52;23.10;80.40
49321;DHT22;35817;44.498;0.166;2022-09-09T09:21:25;23.20;80.50
49321;DHT22;35817;44.498;0.166;2022-09-09T09:26:19;23.50;77.10
49321;DHT22;35817;44.498;0.166;2022-09-09T09:28:47;23.80;77.40
49321;DHT22;35817;44.498;0.166;2022-09-09T09:31:13;24.30;75.40
49321;DHT22;35817;44.498;0.166;2022-09-09T09:33:55;24.30;73.70
49321;DHT22;35817;44.498;0.166;2022-09-09T09:36:24;24.20;73.00
49321;DHT22;35817;44.498;0.166;2022-09-09T09:38:59;24.00;73.30
49321;DHT22;35817;44.498;0.166;2022-09-09T09:41:29;23.70;74.20
49321;DHT22;35817;44.498;0.166;2022-09-09T09:43:55;24.10;74.80
49321;DHT22;35817;44.498;0.166;2022-09-09T09:46:22;24.80;71.60
49321;DHT22;35817;44.498;0.166;2022-09-09T09:51:23;26.30;66.70
49321;DHT22;35817;44.498;0.166;2022-09-09T09:53:49;27.10;65.80
49321;DHT22;35817;44.498;0.166;2022-09-09T09:56:18;27.30;62.40
49321;DHT22;35817;44.498;0.166;2022-09-09T09:58:51;27.60;63.20
49321;DHT22;35817;44.498;0.166;2022-09-09T10:01:25;28.30;62.40
49321;DHT22;35817;44.498;0.166;2022-09-09T10:03:54;28.30;61.70
49321;DHT22;35817;44.498;0.166;2022-09-09T10:06:29;29.20;61.30
49321;DHT22;35817;44.498;0.166;2022-09-09T10:08:55;30.10;57.70
49321;DHT22;35817;44.498;0.166;2022-09-09T10:14:15;28.90;55.70
49321;DHT22;35817;44.498;0.166;2022-09-09T10:16:58;28.10;57.60
49321;DHT22;35817;44.498;0.166;2022-09-09T10:19:29;28.40;58.30
49321;DHT22;35817;44.498;0.166;2022-09-09T10:36:49;29.30;53.70
49321;DHT22;35817;44.498;0.166;2022-09-09T10:41:54;29.60;53.10
49321;DHT22;35817;44.498;0.166;2022-09-09T10:54:04;25.70;61.40
49321;DHT22;35817;44.498;0.166;2022-09-09T10:56:51;25.20;63.60
49321;DHT22;35817;44.498;0.166;2022-09-09T11:04:42;26.20;65.50
49321;DHT22;35817;44.498;0.166;2022-09-09T11:07:15;28.10;61.70
49321;DHT22;35817;44.498;0.166;2022-09-09T11:09:48;29.90;58.70
49321;DHT22;35817;44.498;0.166;2022-09-09T11:12:35;30.90;54.90
49321;DHT22;35817;44.498;0.166;2022-09-09T11:15:25;32.20;52.80
49321;DHT22;35817;44.498;0.166;2022-09-09T11:18:15;33.40;50.80
49321;DHT22;35817;44.498;0.166;2022-09-09T11:20:58;34.20;49.40
49321;DHT22;35817;44.498;0.166;2022-09-09T11:23:52;33.00;48.50
49321;DHT22;35817;44.498;0.166;2022-09-09T11:26:29;31.40;50.50
49321;DHT22;35817;44.498;0.166;2022-09-09T11:32:03;31.60;47.40
49321;DHT22;35817;44.498;0.166;2022-09-09T11:35:07;32.60;45.80
49321;DHT22;35817;44.498;0.166;2022-09-09T11:40:18;33.90;43.60
49321;DHT22;35817;44.498;0.166;2022-09-09T11:42:44;34.30;42.00
49321;DHT22;35817;44.498;0.166;2022-09-09T11:45:15;34.50;41.80
49321;DHT22;35817;44.498;0.166;2022-09-09T11:47:52;34.90;41.60
49321;DHT22;35817;44.498;0.166;2022-09-09T11:52:46;32.20;43.20
49321;DHT22;35817;44.498;0.166;2022-09-09T11:55:34;30.70;45.60
49321;DHT22;35817;44.498;0.166;2022-09-09T11:58:05;29.50;47.60
49321;DHT22;35817;44.498;0.166;2022-09-09T12:00:45;28.90;51.00
49321;DHT22;35817;44.498;0.166;2022-09-09T12:03:46;28.30;53.10
49321;DHT22;35817;44.498;0.166;2022-09-09T12:06:31;27.70;54.80
49321;DHT22;35817;44.498;0.166;2022-09-09T12:09:13;27.20;55.70
49321;DHT22;35817;44.498;0.166;2022-09-09T12:11:41;26.90;56.50
49321;DHT22;35817;44.498;0.166;2022-09-09T12:14:22;26.60;57.40
49321;DHT22;35817;44.498;0.166;2022-09-09T12:16:48;26.90;58.40
49321;DHT22;35817;44.498;0.166;2022-09-09T12:19:15;28.50;57.10
49321;DHT22;35817;44.498;0.166;2022-09-09T12:24:39;32.40;50.80
49321;DHT22;35817;44.498;0.166;2022-09-09T12:32:11;32.50;49.10
49321;DHT22;35817;44.498;0.166;2022-09-09T12:34:41;32.70;48.40
49321;DHT22;35817;44.498;0.166;2022-09-09T12:37:33;32.50;48.00
49321;DHT22;35817;44.498;0.166;2022-09-09T12:40:03;32.00;48.70
49321;DHT22;35817;44.498;0.166;2022-09-09T12:42:29;31.10;48.80
49321;DHT22;35817;44.498;0.166;2022-09-09T12:45:14;30.40;49.90
49321;DHT22;35817;44.498;0.166;2022-09-09T12:47:47;30.80;50.40
49321;DHT22;35817;44.498;0.166;2022-09-09T12:50:17;31.90;48.60
49321;DHT22;35817;44.498;0.166;2022-09-09T12:52:44;31.50;47.90
49321;DHT22;35817;44.498;0.166;2022-09-09T12:55:20;31.20;48.40
49321;DHT22;35817;44.498;0.166;2022-09-09T12:57:47;31.40;48.00
49321;DHT22;35817;44.498;0.166;2022-09-09T13:00:18;31.10;47.80
49321;DHT22;35817;44.498;0.166;2022-09-09T13:02:56;30.60;47.80
49321;DHT22;35817;44.498;0.166;2022-09-09T13:05:24;29.50;49.50
49321;DHT22;35817;44.498;0.166;2022-09-09T13:08:00;29.30;50.80
49321;DHT22;35817;44.498;0.166;2022-09-09T13:10:28;29.50;51.60
49321;DHT22;35817;44.498;0.166;2022-09-09T13:12:54;30.60;50.90
49321;DHT22;35817;44.498;0.166;2022-09-09T13:15:21;32.00;49.60
49321;DHT22;35817;44.498;0.166;2022-09-09T13:17:54;33.80;47.00
49321;DHT22;35817;44.498;0.166;2022-09-09T13:20:21;35.40;44.50
49321;DHT22;35817;44.498;0.166;2022-09-09T13:22:48;35.40;42.90
49321;DHT22;35817;44.498;0.166;2022-09-09T13:25:26;34.30;43.30
49321;DHT22;35817;44.498;0.166;2022-09-09T13:27:59;32.80;44.90
49321;DHT22;35817;44.498;0.166;2022-09-09T13:36:11;30.60;47.60
49321;DHT22;35817;44.498;0.166;2022-09-09T13:39:17;29.90;48.40
49321;DHT22;35817;44.498;0.166;2022-09-09T13:41:45;29.50;49.90
49321;DHT22;35817;44.498;0.166;2022-09-09T13:47:01;32.40;47.50
49321;DHT22;35817;44.498;0.166;2022-09-09T13:49:31;33.20;45.90
49321;DHT22;35817;44.498;0.166;2022-09-09T13:52:18;32.70;45.10
49321;DHT22;35817;44.498;0.166;2022-09-09T13:54:53;32.70;45.60
49321;DHT22;35817;44.498;0.166;2022-09-09T14:00:32;35.30;43.50
49321;DHT22;35817;44.498;0.166;2022-09-09T14:03:25;36.00;41.90
49321;DHT22;35817;44.498;0.166;2022-09-09T14:05:53;34.70;42.00
49321;DHT22;35817;44.498;0.166;2022-09-09T14:08:26;33.40;43.80
49321;DHT22;35817;44.498;0.166;2022-09-09T14:10:52;33.80;43.50
49321;DHT22;35817;44.498;0.166;2022-09-09T14:13:18;34.50;42.30
49321;DHT22;35817;44.498;0.166;2022-09-09T14:18:30;32.40;43.40
49321;DHT22;35817;44.498;0.166;2022-09-09T14:21:30;30.70;44.90
49321;DHT22;35817;44.498;0.166;2022-09-09T14:23:55;29.50;46.30
49321;DHT22;35817;44.498;0.166;2022-09-09T14:26:24;29.20;46.60
49321;DHT22;35817;44.498;0.166;2022-09-09T14:28:52;29.10;47.10
49321;DHT22;35817;44.498;0.166;2022-09-09T14:31:20;30.00;47.00
49321;DHT22;35817;44.498;0.166;2022-09-09T14:33:46;30.50;46.00
49321;DHT22;35817;44.498;0.166;2022-09-09T14:36:13;30.30;46.20
49321;DHT22;35817;44.498;0.166;2022-09-09T14:38:41;30.30;46.50
49321;DHT22;35817;44.498;0.166;2022-09-09T14:41:10;31.10;44.70
49321;DHT22;35817;44.498;0.166;2022-09-09T14:43:38;31.00;44.60
49321;DHT22;35817;44.498;0.166;2022-09-09T14:46:06;31.70;44.80
49321;DHT22;35817;44.498;0.166;2022-09-09T14:48:33;32.10;43.40
49321;DHT22;35817;44.498;0.166;2022-09-09T14:51:09;31.30;44.40
49321;DHT22;35817;44.498;0.166;2022-09-09T14:53:35;30.80;45.30
49321;DHT22;35817;44.498;0.166;2022-09-09T14:56:08;30.50;45.50
49321;DHT22;35817;44.498;0.166;2022-09-09T14:58:34;30.90;46.10
49321;DHT22;35817;44.498;0.166;2022-09-09T15:01:07;31.80;44.70
49321;DHT22;35817;44.498;0.166;2022-09-09T15:03:35;32.80;43.90
49321;DHT22;35817;44.498;0.166;2022-09-09T15:06:11;34.20;42.30
49321;DHT22;35817;44.498;0.166;2022-09-09T15:08:38;34.40;41.50
49321;DHT22;35817;44.498;0.166;2022-09-09T15:11:05;34.10;42.10
49321;DHT22;35817;44.498;0.166;2022-09-09T15:13:36;34.40;41.80
49321;DHT22;35817;44.498;0.166;2022-09-09T15:16:11;34.40;41.50
49321;DHT22;35817;44.498;0.166;2022-09-09T15:18:37;33.30;42.00
49321;DHT22;35817;44.498;0.166;2022-09-09T15:21:05;32.10;43.50
49321;DHT22;35817;44.498;0.166;2022-09-09T15:23:35;32.40;43.40
49321;DHT22;35817;44.498;0.166;2022-09-09T15:26:01;32.00;43.40
49321;DHT22;35817;44.498;0.166;2022-09-09T15:28:27;30.90;44.60
49321;DHT22;35817;44.498;0.166;2022-09-09T15:30:54;29.90;45.80
49321;DHT22;35817;44.498;0.166;2022-09-09T15:33:21;29.60;46.40
49321;DHT22;35817;44.498;0.166;2022-09-09T15:35:47;30.30;46.50
49321;DHT22;35817;44.498;0.166;2022-09-09T15:38:15;31.80;45.00
49321;DHT22;35817;44.498;0.166;2022-09-09T15:40:42;33.10;43.50
49321;DHT22;35817;44.498;0.166;2022-09-09T15:43:08;34.10;41.90
49321;DHT22;35817;44.498;0.166;2022-09-09T15:45:35;34.30;41.30
49321;DHT22;35817;44.498;0.166;2022-09-09T15:48:02;33.20;41.80
49321;DHT22;35817;44.498;0.166;2022-09-09T15:50:29;31.90;43.10
49321;DHT22;35817;44.498;0.166;2022-09-09T15:52:58;31.20;44.30
49321;DHT22;35817;44.498;0.166;2022-09-09T15:55:24;32.10;43.80
49321;DHT22;35817;44.498;0.166;2022-09-09T15:57:51;33.50;42.60
49321;DHT22;35817;44.498;0.166;2022-09-09T16:00:21;34.80;41.00
49321;DHT22;35817;44.498;0.166;2022-09-09T16:02:48;35.00;40.80
49321;DHT22;35817;44.498;0.166;2022-09-09T16:05:14;35.30;40.30
49321;DHT22;35817;44.498;0.166;2022-09-09T16:07:39;35.60;40.30
49321;DHT22;35817;44.498;0.166;2022-09-09T16:10:08;35.60;39.90
49321;DHT22;35817;44.498;0.166;2022-09-09T16:12:34;36.00;39.90
49321;DHT22;35817;44.498;0.166;2022-09-09T16:15:00;35.40;40.00
49321;DHT22;35817;44.498;0.166;2022-09-09T16:17:27;33.70;41.30
49321;DHT22;35817;44.498;0.166;2022-09-09T16:19:53;32.30;42.90
49321;DHT22;35817;44.498;0.166;2022-09-09T16:22:20;31.10;44.40
49321;DHT22;35817;44.498;0.166;2022-09-09T16:24:45;30.50;45.30
49321;DHT22;35817;44.498;0.166;2022-09-09T16:27:11;30.40;45.80
49321;DHT22;35817;44.498;0.166;2022-09-09T16:29:37;30.60;46.00
49321;DHT22;35817;44.498;0.166;2022-09-09T16:32:02;31.50;44.90
49321;DHT22;35817;44.498;0.166;2022-09-09T16:34:29;31.50;44.40
49321;DHT22;35817;44.498;0.166;2022-09-09T16:36:54;30.80;44.80
49321;DHT22;35817;44.498;0.166;2022-09-09T16:39:21;30.20;45.70
49321;DHT22;35817;44.498;0.166;2022-09-09T16:41:47;30.10;46.30
49321;DHT22;35817;44.498;0.166;2022-09-09T16:44:14;30.50;45.60
49321;DHT22;35817;44.498;0.166;2022-09-09T16:46:44;30.30;45.60
49321;DHT22;35817;44.498;0.166;2022-09-09T16:49:14;29.50;46.30
49321;DHT22;35817;44.498;0.166;2022-09-09T16:51:46;28.60;47.50
49321;DHT22;35817;44.498;0.166;2022-09-09T16:54:12;27.90;48.90
49321;DHT22;35817;44.498;0.166;2022-09-09T16:56:41;27.20;50.00
49321;DHT22;35817;44.498;0.166;2022-09-09T16:59:18;27.10;50.90
49321;DHT22;35817;44.498;0.166;2022-09-09T17:01:46;27.90;49.80
49321;DHT22;35817;44.498;0.166;2022-09-09T17:04:22;28.60;49.00
49321;DHT22;35817;44.498;0.166;2022-09-09T17:06:51;29.30;47.90
49321;DHT22;35817;44.498;0.166;2022-09-09T17:09:17;29.80;46.90
49321;DHT22;35817;44.498;0.166;2022-09-09T17:11:44;30.00;46.60
49321;DHT22;35817;44.498;0.166;2022-09-09T17:14:14;30.20;46.10
49321;DHT22;35817;44.498;0.166;2022-09-09T17:16:40;30.20;46.10
49321;DHT22;35817;44.498;0.166;2022-09-09T17:19:06;30.20;46.20
49321;DHT22;35817;44.498;0.166;2022-09-09T17:21:34;29.90;46.20
49321;DHT22;35817;44.498;0.166;2022-09-09T17:24:00;29.80;46.60
49321;DHT22;35817;44.498;0.166;2022-09-09T17:26:29;29.20;47.60
49321;DHT22;35817;44.498;0.166;2022-09-09T17:28:57;28.30;48.70
49321;DHT22;35817;44.498;0.166;2022-09-09T17:31:26;27.30;50.50
49321;DHT22;35817;44.498;0.166;2022-09-09T17:33:54;26.50;51.90
49321;DHT22;35817;44.498;0.166;2022-09-09T17:36:28;25.80;52.70
49321;DHT22;35817;44.498;0.166;2022-09-09T17:38:55;25.30;53.80
49321;DHT22;35817;44.498;0.166;2022-09-09T17:41:28;24.90;54.30
49321;DHT22;35817;44.498;0.166;2022-09-09T17:43:54;24.60;54.90
49321;DHT22;35817;44.498;0.166;2022-09-09T17:46:22;24.30;55.90
49321;DHT22;35817;44.498;0.166;2022-09-09T17:48:51;24.10;56.40
49321;DHT22;35817;44.498;0.166;2022-09-09T17:51:20;23.80;56.70
49321;DHT22;35817;44.498;0.166;2022-09-09T17:53:50;23.70;57.50
49321;DHT22;35817;44.498;0.166;2022-09-09T17:56:19;23.50;57.80
49321;DHT22;35817;44.498;0.166;2022-09-09T17:58:46;23.30;58.00